Time;durP1;ratioP1;P1;durP2;ratioP2;P2;SDS_P1;SDS_P2;PMS_P1;PMS_P2;Temp;Humidity;BMP_temperature;BMP_pressure;BME280_temperature;BME280_humidity;BME280_pressure;Samples;Min_cycle;Max_cycle;Signal;HPM_P1;HPM_P2
2022/11/29 02:55:48;;;;;;;1999.90;999.90;;;;;;;;;;5486450;22;20245;-69
2022/11/29 02:58:36;;;;;;;1999.90;999.90;;;;;;;;;;5060209;28;20803;-68
2022/11/29 03:01:25;;;;;;;1999.90;999.90;;;;;;;;;;5060462;28;20208;-68
2022/11/29 03:04:13;;;;;;;1999.90;999.90;;;;;;;;;;5068769;28;20240;-68
2022/11/29 03:07:02;;;;;;;1999.90;999.90;;;;;;;;;;5050631;28;20228;-69
2022/11/29 03:09:54;;;;;;;1999.90;999.90;;;;;;;;;;5050710;28;20695;-69
2022/11/29 03:12:42;;;;;;;1999.90;999.90;;;;;;;;;;5050793;28;20205;-68
2022/11/29 03:15:29;;;;;;;1999.90;999.90;;;;;;;;;;5050391;28;20221;-69
2022/11/29 03:18:22;;;;;;;1999.90;999.90;;;;;;;;;;5050679;28;20204;-68
2022/11/29 03:21:18;;;;;;;1999.90;999.90;;;;;;;;;;5050437;28;20269;-68
2022/11/29 03:24:05;;;;;;;1999.90;999.90;;;;;;;;;;5049110;28;20470;-69
2022/11/29 03:26:55;;;;;;;1999.90;999.90;;;;;;;;;;5050765;28;20212;-68
2022/11/29 03:29:46;;;;;;;1999.90;999.90;;;;;;;;;;5050465;28;20206;-67
2022/11/29 03:32:34;;;;;;;1999.90;999.90;;;;;;;;;;5050230;28;20229;-68
2022/11/29 03:35:21;;;;;;;1999.90;999.90;;;;;;;;;;5049907;28;20226;-69
2022/11/29 03:38:11;;;;;;;1999.90;999.90;;;;;;;;;;5050333;28;20209;-68
2022/11/29 03:41:00;;;;;;;1999.90;999.90;;;;;;;;;;5050459;28;20277;-68
2022/11/29 03:43:47;;;;;;;1999.90;999.90;;;;;;;;;;5050027;28;20945;-68
2022/11/29 03:46:36;;;;;;;1999.90;999.90;;;;;;;;;;5049926;28;20325;-69
2022/11/29 03:49:23;;;;;;;1999.90;999.90;;;;;;;;;;5050428;28;20198;-68
2022/11/29 03:52:12;;;;;;;1999.90;999.90;;;;;;;;;;5053973;28;20299;-68
2022/11/29 03:55:03;;;;;;;1999.90;999.90;;;;;;;;;;5053726;28;20606;-68
2022/11/29 03:57:53;;;;;;;1999.90;999.90;;;;;;;;;;5034646;28;20201;-68
2022/11/29 04:00:52;;;;;;;1999.90;999.90;;;;;;;;;;5033478;28;20205;-68
2022/11/29 04:03:46;;;;;;;1999.90;999.90;;;;;;;;;;5034520;28;20272;-68
2022/11/29 04:06:39;;;;;;;1999.90;999.90;;;;;;;;;;5035015;28;20202;-68
2022/11/29 04:09:34;;;;;;;1999.90;999.90;;;;;;;;;;5034815;28;20209;-68
2022/11/29 04:12:34;;;;;;;1999.90;999.90;;;;;;;;;;5034757;28;20201;-68
2022/11/29 04:15:40;;;;;;;1999.90;999.90;;;;;;;;;;5034135;28;20332;-69
2022/11/29 04:18:36;;;;;;;1999.90;999.90;;;;;;;;;;5034477;28;20571;-68
2022/11/29 04:21:34;;;;;;;1999.90;999.90;;;;;;;;;;5034341;28;20207;-68
2022/11/29 04:24:33;;;;;;;1999.90;999.90;;;;;;;;;;5033930;28;20221;-68
2022/11/29 04:27:30;;;;;;;1999.90;999.90;;;;;;;;;;5034333;28;20560;-68
2022/11/29 04:30:19;;;;;;;1999.90;999.90;;;;;;;;;;5034115;28;20198;-68
2022/11/29 04:33:28;;;;;;;1999.90;999.90;;;;;;;;;;5034198;28;20213;-68
2022/11/29 04:36:28;;;;;;;1999.90;999.90;;;;;;;;;;5028538;28;20264;-68
2022/11/29 04:39:30;;;;;;;1999.90;999.90;;;;;;;;;;5016696;28;20296;-68
2022/11/29 04:42:26;;;;;;;1999.90;999.90;;;;;;;;;;5018284;28;20279;-68
2022/11/29 04:45:35;;;;;;;1999.90;999.90;;;;;;;;;;5050546;28;20479;-68
2022/11/29 04:48:34;;;;;;;1999.90;999.90;;;;;;;;;;5053821;28;20736;-68
2022/11/29 04:51:25;;;;;;;1999.90;999.90;;;;;;;;;;5050377;28;20205;-68
2022/11/29 04:54:16;;;;;;;1999.90;999.90;;;;;;;;;;5053315;28;20574;-68
2022/11/29 04:57:05;;;;;;;1999.90;999.90;;;;;;;;;;5039945;28;20218;-68
2022/11/29 04:59:56;;;;;;;1999.90;999.90;;;;;;;;;;5033641;28;20872;-68
2022/11/29 05:02:45;;;;;;;1999.90;999.90;;;;;;;;;;5033140;28;20688;-68
2022/11/29 05:05:34;;;;;;;1999.90;999.90;;;;;;;;;;5032674;28;20233;-68
2022/11/29 05:08:25;;;;;;;1999.90;999.90;;;;;;;;;;5033460;28;20202;-68
2022/11/29 05:11:14;;;;;;;1999.90;999.90;;;;;;;;;;5043117;28;20209;-68
2022/11/29 05:14:08;;;;;;;1999.90;999.90;;;;;;;;;;5052260;28;20214;-68
2022/11/29 05:17:01;;;;;;;1999.90;999.90;;;;;;;;;;5048606;28;20384;-68
2022/11/29 05:19:54;;;;;;;1999.90;999.90;;;;;;;;;;5049496;28;20202;-68
2022/11/29 05:22:48;;;;;;;1999.90;999.90;;;;;;;;;;5045924;28;20260;-68
2022/11/29 05:25:37;;;;;;;1999.90;999.90;;;;;;;;;;5039561;28;20222;-68
2022/11/29 05:28:25;;;;;;;1999.90;999.90;;;;;;;;;;5051359;28;20277;-68
2022/11/29 05:31:24;;;;;;;1999.90;999.90;;;;;;;;;;5040710;28;20210;-66
2022/11/29 05:34:30;;;;;;;1999.90;999.90;;;;;;;;;;5035396;28;20205;-68
2022/11/29 05:37:21;;;;;;;1999.90;999.90;;;;;;;;;;5032920;28;20205;-68
2022/11/29 05:40:22;;;;;;;1999.90;999.90;;;;;;;;;;5032624;28;20206;-68
2022/11/29 05:43:15;;;;;;;1999.90;999.90;;;;;;;;;;5032777;28;20228;-68
2022/11/29 05:46:03;;;;;;;1999.90;999.90;;;;;;;;;;5033677;28;20245;-65
2022/11/29 05:48:54;;;;;;;1999.90;999.90;;;;;;;;;;5052335;28;20264;-66
2022/11/29 05:51:44;;;;;;;1999.90;999.90;;;;;;;;;;5052334;28;20216;-66
2022/11/29 05:54:31;;;;;;;1999.90;999.90;;;;;;;;;;5051948;28;20220;-66
2022/11/29 05:57:21;;;;;;;1999.90;999.90;;;;;;;;;;5052188;28;20208;-66
2022/11/29 06:00:08;;;;;;;1999.90;999.90;;;;;;;;;;5052136;28;20260;-66
2022/11/29 06:02:57;;;;;;;1999.90;999.90;;;;;;;;;;5052059;28;20305;-67
2022/11/29 06:05:45;;;;;;;1999.90;999.90;;;;;;;;;;5051766;28;20826;-66
2022/11/29 06:08:35;;;;;;;1999.90;999.90;;;;;;;;;;5051147;28;20756;-67
2022/11/29 06:11:23;;;;;;;1999.90;999.90;;;;;;;;;;5052257;28;20213;-68
2022/11/29 06:14:11;;;;;;;1999.90;999.90;;;;;;;;;;5048804;28;20216;-68
2022/11/29 06:17:14;;;;;;;1999.90;999.90;;;;;;;;;;5047878;28;20206;-68
2022/11/29 06:20:07;;;;;;;1999.90;999.90;;;;;;;;;;5039388;28;20585;-69
2022/11/29 06:23:07;;;;;;;1999.90;999.90;;;;;;;;;;5047693;28;20209;-68
2022/11/29 06:25:59;;;;;;;1999.90;999.90;;;;;;;;;;5042024;28;20241;-68
2022/11/29 06:28:52;;;;;;;1999.90;999.90;;;;;;;;;;5033513;28;20427;-69
2022/11/29 06:31:39;;;;;;;1999.90;999.90;;;;;;;;;;5045394;28;20612;-69
2022/11/29 06:34:29;;;;;;;1999.90;999.90;;;;;;;;;;5047217;28;20288;-69
2022/11/29 06:37:15;;;;;;;1999.90;999.90;;;;;;;;;;5050279;28;20582;-69
2022/11/29 06:40:00;;;;;;;1999.90;999.90;;;;;;;;;;5043878;28;20296;-69
2022/11/29 06:42:47;;;;;;;1999.90;999.90;;;;;;;;;;5044141;28;20405;-69
2022/11/29 06:45:32;;;;;;;1999.90;999.90;;;;;;;;;;5044191;28;20225;-69
2022/11/29 06:48:21;;;;;;;1999.90;999.90;;;;;;;;;;5050909;28;20212;-69
2022/11/29 06:51:10;;;;;;;1999.90;999.90;;;;;;;;;;5045790;28;20279;-70
2022/11/29 06:53:58;;;;;;;1999.90;999.90;;;;;;;;;;5031764;28;20218;-69
2022/11/29 06:56:46;;;;;;;1999.90;999.90;;;;;;;;;;5031427;28;20209;-70
2022/11/29 06:59:36;;;;;;;1999.90;999.90;;;;;;;;;;5030977;28;20202;-69
2022/11/29 07:02:28;;;;;;;1999.90;999.90;;;;;;;;;;5031708;28;20310;-69
2022/11/29 07:05:16;;;;;;;1999.90;999.90;;;;;;;;;;5036490;28;20747;-69
2022/11/29 07:08:02;;;;;;;1999.90;999.90;;;;;;;;;;5034270;28;20224;-68
2022/11/29 07:10:49;;;;;;;1999.90;999.90;;;;;;;;;;5032025;28;20206;-69
2022/11/29 07:13:34;;;;;;;1999.90;999.90;;;;;;;;;;5031148;28;20261;-69
2022/11/29 07:16:26;;;;;;;1999.90;999.90;;;;;;;;;;5045568;28;20229;-69
2022/11/29 07:19:17;;;;;;;1999.90;999.90;;;;;;;;;;5031465;28;20198;-68
2022/11/29 07:22:05;;;;;;;1999.90;999.90;;;;;;;;;;5032105;28;20256;-69
2022/11/29 07:24:55;;;;;;;1999.90;999.90;;;;;;;;;;5051110;28;20259;-69
2022/11/29 07:27:45;;;;;;;1999.90;999.90;;;;;;;;;;5055197;28;20295;-69
2022/11/29 07:30:34;;;;;;;1999.90;999.90;;;;;;;;;;5053341;28;20269;-69
2022/11/29 07:33:24;;;;;;;1999.90;999.90;;;;;;;;;;5051512;28;20216;-69
2022/11/29 07:36:13;;;;;;;1999.90;999.90;;;;;;;;;;5051274;28;20225;-68
2022/11/29 07:39:03;;;;;;;1999.90;999.90;;;;;;;;;;5034431;28;20284;-69
2022/11/29 07:41:53;;;;;;;1999.90;999.90;;;;;;;;;;5034274;28;20210;-69
2022/11/29 07:44:39;;;;;;;1999.90;999.90;;;;;;;;;;5033535;28;20346;-69
2022/11/29 07:47:25;;;;;;;1999.90;999.90;;;;;;;;;;5034401;28;20295;-69
2022/11/29 07:50:11;;;;;;;1999.90;999.90;;;;;;;;;;5052190;28;20339;-69
2022/11/29 07:52:56;;;;;;;1999.90;999.90;;;;;;;;;;5038356;28;20418;-69
2022/11/29 07:55:41;;;;;;;1999.90;999.90;;;;;;;;;;5050112;28;20601;-69
2022/11/29 07:58:26;;;;;;;1999.90;999.90;;;;;;;;;;5052634;28;20212;-69
2022/11/29 08:01:11;;;;;;;1999.90;999.90;;;;;;;;;;5052797;28;20224;-69
2022/11/29 08:03:56;;;;;;;1999.90;999.90;;;;;;;;;;5052567;28;20205;-69
2022/11/29 08:06:43;;;;;;;1999.90;999.90;;;;;;;;;;5052203;28;20735;-69
2022/11/29 08:09:28;;;;;;;1999.90;999.90;;;;;;;;;;5052471;28;20209;-69
2022/11/29 08:12:13;;;;;;;1999.90;999.90;;;;;;;;;;5052866;28;20204;-69
2022/11/29 08:14:58;;;;;;;1999.90;999.90;;;;;;;;;;5044873;28;20368;-69
2022/11/29 08:17:42;;;;;;;1999.90;999.90;;;;;;;;;;5033536;28;20205;-69
2022/11/29 08:20:27;;;;;;;1999.90;999.90;;;;;;;;;;5036068;28;20300;-69
2022/11/29 08:23:14;;;;;;;1999.90;999.90;;;;;;;;;;5033632;28;20217;-69
2022/11/29 08:25:59;;;;;;;1999.90;999.90;;;;;;;;;;5032837;28;20308;-69
2022/11/29 08:28:44;;;;;;;1999.90;999.90;;;;;;;;;;5033188;28;20590;-68
2022/11/29 08:31:29;;;;;;;1999.90;999.90;;;;;;;;;;5040336;28;20201;-69
2022/11/29 08:34:14;;;;;;;1999.90;999.90;;;;;;;;;;5051440;28;20248;-69
2022/11/29 08:36:59;;;;;;;1999.90;999.90;;;;;;;;;;5051052;28;20205;-68
2022/11/29 08:39:45;;;;;;;1999.90;999.90;;;;;;;;;;5048763;28;20208;-69
2022/11/29 08:42:30;;;;;;;1999.90;999.90;;;;;;;;;;5048345;28;20264;-69
2022/11/29 08:45:15;;;;;;;1999.90;999.90;;;;;;;;;;5038048;28;20312;-69
2022/11/29 08:48:00;;;;;;;1999.90;999.90;;;;;;;;;;5049645;28;20691;-69
2022/11/29 08:50:44;;;;;;;1999.90;999.90;;;;;;;;;;5050801;28;20491;-68
2022/11/29 08:53:42;;;;;;;1999.90;999.90;;;;;;;;;;5051591;28;20205;-69
2022/11/29 08:56:28;;;;;;;1999.90;999.90;;;;;;;;;;5046868;28;20623;-69
2022/11/29 08:59:13;;;;;;;1999.90;999.90;;;;;;;;;;5041130;28;20357;-70
2022/11/29 09:01:58;;;;;;;1999.90;999.90;;;;;;;;;;5035415;28;20220;-70
2022/11/29 09:04:42;;;;;;;1999.90;999.90;;;;;;;;;;5042481;28;20295;-70
2022/11/29 09:07:27;;;;;;;1999.90;999.90;;;;;;;;;;5039691;28;20337;-71
2022/11/29 09:10:12;;;;;;;1999.90;999.90;;;;;;;;;;5048988;28;20209;-70
2022/11/29 09:12:59;;;;;;;1999.90;999.90;;;;;;;;;;5051418;28;20214;-71
2022/11/29 09:15:44;;;;;;;1999.90;999.90;;;;;;;;;;5059106;28;20281;-70
2022/11/29 09:18:29;;;;;;;1999.90;999.90;;;;;;;;;;5053066;28;20303;-71
2022/11/29 09:21:13;;;;;;;1999.90;999.90;;;;;;;;;;5049445;28;20634;-72
2022/11/29 09:23:59;;;;;;;1999.90;999.90;;;;;;;;;;5056598;28;20706;-70
2022/11/29 09:26:47;;;;;;;1999.90;999.90;;;;;;;;;;5052909;28;20245;-70
2022/11/29 09:29:33;;;;;;;1999.90;999.90;;;;;;;;;;5053140;28;20683;-70
2022/11/29 09:32:18;;;;;;;1999.90;999.90;;;;;;;;;;5049962;28;20638;-70
2022/11/29 09:35:02;;;;;;;1999.90;999.90;;;;;;;;;;5051502;28;20229;-71
2022/11/29 09:37:48;;;;;;;1999.90;999.90;;;;;;;;;;5054270;28;20205;-71
2022/11/29 09:40:37;;;;;;;1999.90;999.90;;;;;;;;;;5062199;28;20572;-71
2022/11/29 09:43:26;;;;;;;1999.90;999.90;;;;;;;;;;5052886;28;20332;-71
2022/11/29 09:46:16;;;;;;;1999.90;999.90;;;;;;;;;;5056749;28;20221;-71
2022/11/29 09:49:20;;;;;;;1999.90;999.90;;;;;;;;;;5058992;28;20292;-71
2022/11/29 09:52:10;;;;;;;1999.90;999.90;;;;;;;;;;5062459;28;20216;-72
2022/11/29 09:54:59;;;;;;;1999.90;999.90;;;;;;;;;;5053272;28;20241;-71
2022/11/29 09:57:45;;;;;;;1999.90;999.90;;;;;;;;;;5055988;28;20278;-72
2022/11/29 10:00:30;;;;;;;1999.90;999.90;;;;;;;;;;5048332;28;20201;-72
2022/11/29 10:03:19;;;;;;;1999.90;999.90;;;;;;;;;;5052778;28;20213;-72
2022/11/29 10:06:08;;;;;;;1999.90;999.90;;;;;;;;;;5051047;28;20256;-71
2022/11/29 10:08:56;;;;;;;1999.90;999.90;;;;;;;;;;5050123;28;20225;-71
2022/11/29 10:11:43;;;;;;;1999.90;999.90;;;;;;;;;;5049590;28;20703;-72
2022/11/29 10:14:30;;;;;;;1999.90;999.90;;;;;;;;;;5048654;28;20512;-70
2022/11/29 10:17:23;;;;;;;1999.90;999.90;;;;;;;;;;5051815;28;20205;-71
2022/11/29 10:20:14;;;;;;;1999.90;999.90;;;;;;;;;;5050576;28;20213;-71
2022/11/29 10:23:02;;;;;;;1999.90;999.90;;;;;;;;;;5050665;28;20209;-70
2022/11/29 10:25:48;;;;;;;1999.90;999.90;;;;;;;;;;5049168;28;20224;-71
2022/11/29 10:28:35;;;;;;;1999.90;999.90;;;;;;;;;;5044530;28;20291;-71
2022/11/29 10:31:21;;;;;;;1999.90;999.90;;;;;;;;;;5042081;28;20347;-71
2022/11/29 10:34:11;;;;;;;1999.90;999.90;;;;;;;;;;5051278;28;20279;-71
2022/11/29 10:37:01;;;;;;;1999.90;999.90;;;;;;;;;;5050146;28;20491;-72
2022/11/29 10:39:47;;;;;;;1999.90;999.90;;;;;;;;;;5042599;28;21004;-71
2022/11/29 10:42:52;;;;;;;1999.90;999.90;;;;;;;;;;5042913;28;20324;-70
2022/11/29 10:45:38;;;;;;;1999.90;999.90;;;;;;;;;;5044390;28;20294;-70
2022/11/29 10:48:25;;;;;;;1999.90;999.90;;;;;;;;;;5051304;28;20707;-71
2022/11/29 10:51:15;;;;;;;1999.90;999.90;;;;;;;;;;5050893;28;20220;-71
2022/11/29 10:54:12;;;;;;;1999.90;999.90;;;;;;;;;;5051209;28;20332;-71
2022/11/29 10:56:58;;;;;;;1999.90;999.90;;;;;;;;;;5049443;28;20714;-72
2022/11/29 10:59:58;;;;;;;1999.90;999.90;;;;;;;;;;5045314;28;20205;-71
2022/11/29 11:02:43;;;;;;;1999.90;999.90;;;;;;;;;;5048345;28;20574;-71
2022/11/29 11:05:28;;;;;;;1999.90;999.90;;;;;;;;;;5049840;28;20731;-71
2022/11/29 11:08:16;;;;;;;1999.90;999.90;;;;;;;;;;5045360;28;20212;-70
2022/11/29 11:11:03;;;;;;;1999.90;999.90;;;;;;;;;;5053830;28;20272;-71
2022/11/29 11:13:56;;;;;;;1999.90;999.90;;;;;;;;;;5053059;28;20209;-70
2022/11/29 11:16:41;;;;;;;1999.90;999.90;;;;;;;;;;5050673;28;20197;-70
2022/11/29 11:19:27;;;;;;;1999.90;999.90;;;;;;;;;;5047297;28;20220;-70
2022/11/29 11:22:20;;;;;;;1999.90;999.90;;;;;;;;;;5055359;28;20239;-71
2022/11/29 11:25:06;;;;;;;1999.90;999.90;;;;;;;;;;5054943;28;20217;-70
2022/11/29 11:27:53;;;;;;;1999.90;999.90;;;;;;;;;;5055281;28;20205;-69
2022/11/29 11:30:38;;;;;;;1999.90;999.90;;;;;;;;;;5055242;28;20699;-70
2022/11/29 11:33:25;;;;;;;1999.90;999.90;;;;;;;;;;5054477;28;20409;-70
2022/11/29 11:36:12;;;;;;;1999.90;999.90;;;;;;;;;;5053547;28;20224;-70
2022/11/29 11:38:58;;;;;;;1999.90;999.90;;;;;;;;;;5055082;28;20228;-71
2022/11/29 11:44:51;;;;;;;1999.90;999.90;;;;;;;;;;5045625;28;20302;-70
2022/11/29 11:47:37;;;;;;;1999.90;999.90;;;;;;;;;;5034313;28;20218;-70
2022/11/29 11:50:27;;;;;;;1999.90;999.90;;;;;;;;;;5053285;28;20367;-70
2022/11/29 11:53:18;;;;;;;1999.90;999.90;;;;;;;;;;5049747;28;20581;-71
2022/11/29 11:56:05;;;;;;;1999.90;999.90;;;;;;;;;;5051109;28;20225;-71
2022/11/29 11:58:51;;;;;;;1999.90;999.90;;;;;;;;;;5042520;28;20433;-70
2022/11/29 12:01:38;;;;;;;1999.90;999.90;;;;;;;;;;5034202;28;20206;-70
2022/11/29 12:04:25;;;;;;;1999.90;999.90;;;;;;;;;;5043669;28;20584;-71
2022/11/29 12:07:14;;;;;;;1999.90;999.90;;;;;;;;;;5050717;28;20360;-70
2022/11/29 12:10:00;;;;;;;1999.90;999.90;;;;;;;;;;5052914;28;20328;-72
2022/11/29 12:12:45;;;;;;;1999.90;999.90;;;;;;;;;;5053352;28;20597;-71
2022/11/29 12:15:32;;;;;;;1999.90;999.90;;;;;;;;;;5052247;28;20241;-71
2022/11/29 12:18:24;;;;;;;1999.90;999.90;;;;;;;;;;5050440;28;20217;-71
2022/11/29 12:21:12;;;;;;;1999.90;999.90;;;;;;;;;;5045515;28;20229;-71
2022/11/29 12:23:59;;;;;;;1999.90;999.90;;;;;;;;;;5044503;28;20871;-72
2022/11/29 12:26:44;;;;;;;1999.90;999.90;;;;;;;;;;5048099;28;20236;-71
2022/11/29 12:29:31;;;;;;;1999.90;999.90;;;;;;;;;;5052688;28;20213;-70
2022/11/29 12:32:27;;;;;;;1999.90;999.90;;;;;;;;;;5053420;28;20275;-70
2022/11/29 12:35:31;;;;;;;1999.90;999.90;;;;;;;;;;5041155;28;20221;-70
2022/11/29 12:38:26;;;;;;;1999.90;999.90;;;;;;;;;;5051087;28;20209;-70
2022/11/29 12:41:17;;;;;;;1999.90;999.90;;;;;;;;;;5050153;28;20243;-71
2022/11/29 12:44:08;;;;;;;1999.90;999.90;;;;;;;;;;5052806;28;20213;-72
2022/11/29 12:46:57;;;;;;;1999.90;999.90;;;;;;;;;;5051791;28;20233;-70
2022/11/29 12:49:47;;;;;;;1999.90;999.90;;;;;;;;;;5047984;28;20437;-72
2022/11/29 12:52:38;;;;;;;1999.90;999.90;;;;;;;;;;5046336;28;20283;-70
2022/11/29 12:55:25;;;;;;;1999.90;999.90;;;;;;;;;;5052218;28;20355;-70
2022/11/29 12:58:14;;;;;;;1999.90;999.90;;;;;;;;;;5041291;28;20204;-71
2022/11/29 13:01:05;;;;;;;1999.90;999.90;;;;;;;;;;5052901;28;20694;-70
2022/11/29 13:03:53;;;;;;;1999.90;999.90;;;;;;;;;;5050515;28;20719;-70
2022/11/29 13:06:41;;;;;;;1999.90;999.90;;;;;;;;;;5047410;28;20348;-70
2022/11/29 13:09:37;;;;;;;1999.90;999.90;;;;;;;;;;5047612;28;20288;-70
2022/11/29 13:12:26;;;;;;;1999.90;999.90;;;;;;;;;;5050086;28;21038;-70
2022/11/29 13:15:14;;;;;;;1999.90;999.90;;;;;;;;;;5052413;28;20221;-70
2022/11/29 13:18:03;;;;;;;1999.90;999.90;;;;;;;;;;5052970;28;20295;-70
2022/11/29 13:20:51;;;;;;;1999.90;999.90;;;;;;;;;;5053113;28;20209;-70
2022/11/29 13:23:40;;;;;;;1999.90;999.90;;;;;;;;;;5052693;28;20592;-70
2022/11/29 13:26:27;;;;;;;1999.90;999.90;;;;;;;;;;5052393;28;20717;-70
2022/11/29 13:29:13;;;;;;;1999.90;999.90;;;;;;;;;;5053028;28;20671;-70
2022/11/29 13:31:58;;;;;;;1999.90;999.90;;;;;;;;;;5052903;28;20210;-70
2022/11/29 13:34:45;;;;;;;1999.90;999.90;;;;;;;;;;5052273;28;20225;-70
2022/11/29 13:37:33;;;;;;;1999.90;999.90;;;;;;;;;;5052826;28;20209;-71
2022/11/29 13:40:21;;;;;;;1999.90;999.90;;;;;;;;;;5052782;28;20292;-70
2022/11/29 13:43:14;;;;;;;1999.90;999.90;;;;;;;;;;5052536;28;20340;-70
2022/11/29 13:46:03;;;;;;;1999.90;999.90;;;;;;;;;;5052300;28;20692;-70
2022/11/29 13:48:49;;;;;;;1999.90;999.90;;;;;;;;;;5052398;28;20202;-71
2022/11/29 13:51:36;;;;;;;1999.90;999.90;;;;;;;;;;5052577;28;20692;-71
2022/11/29 13:54:28;;;;;;;1999.90;999.90;;;;;;;;;;5051852;28;20738;-70
2022/11/29 13:57:14;;;;;;;1999.90;999.90;;;;;;;;;;5052532;28;20688;-70
2022/11/29 14:00:00;;;;;;;1999.90;999.90;;;;;;;;;;5052529;28;20698;-70
2022/11/29 14:02:45;;;;;;;1999.90;999.90;;;;;;;;;;5052453;28;20297;-70
2022/11/29 14:05:37;;;;;;;1999.90;999.90;;;;;;;;;;5051768;28;20238;-70
2022/11/29 14:08:26;;;;;;;1999.90;999.90;;;;;;;;;;5052070;28;20221;-70
2022/11/29 14:11:20;;;;;;;1999.90;999.90;;;;;;;;;;5052271;28;20209;-70
2022/11/29 14:14:07;;;;;;;1999.90;999.90;;;;;;;;;;5052160;28;20208;-70
2022/11/29 14:16:57;;;;;;;1999.90;999.90;;;;;;;;;;5052236;28;20217;-70
2022/11/29 14:19:42;;;;;;;1999.90;999.90;;;;;;;;;;5051872;28;20201;-70
2022/11/29 14:22:27;;;;;;;1999.90;999.90;;;;;;;;;;5052090;28;20280;-70
2022/11/29 14:25:23;;;;;;;1999.90;999.90;;;;;;;;;;5051806;28;20226;-71
2022/11/29 14:28:22;;;;;;;1999.90;999.90;;;;;;;;;;5051683;28;20256;-70
2022/11/29 14:31:08;;;;;;;1999.90;999.90;;;;;;;;;;5052053;28;20291;-70
2022/11/29 14:34:02;;;;;;;1999.90;999.90;;;;;;;;;;5050385;28;20416;-70
2022/11/29 14:36:49;;;;;;;1999.90;999.90;;;;;;;;;;5051928;28;20204;-70
2022/11/29 14:39:41;;;;;;;1999.90;999.90;;;;;;;;;;5051929;28;20205;-70
2022/11/29 14:42:27;;;;;;;1999.90;999.90;;;;;;;;;;5051854;28;20335;-71
2022/11/29 14:45:21;;;;;;;1999.90;999.90;;;;;;;;;;5051265;28;20297;-70
2022/11/29 14:48:23;;;;;;;1999.90;999.90;;;;;;;;;;5051546;28;20221;-70
2022/11/29 14:51:12;;;;;;;1999.90;999.90;;;;;;;;;;5051872;28;20201;-70
2022/11/29 14:54:05;;;;;;;1999.90;999.90;;;;;;;;;;5051769;28;20209;-70
2022/11/29 14:56:50;;;;;;;1999.90;999.90;;;;;;;;;;5051778;28;20197;-70
2022/11/29 14:59:41;;;;;;;1999.90;999.90;;;;;;;;;;5051763;28;20572;-71
2022/11/29 15:02:31;;;;;;;1999.90;999.90;;;;;;;;;;5051486;28;20345;-70
2022/11/29 15:05:17;;;;;;;1999.90;999.90;;;;;;;;;;5051298;28;20340;-70
2022/11/29 15:08:07;;;;;;;1999.90;999.90;;;;;;;;;;5051463;28;20225;-71
2022/11/29 15:10:54;;;;;;;1999.90;999.90;;;;;;;;;;5051691;28;20707;-70
2022/11/29 15:13:47;;;;;;;1999.90;999.90;;;;;;;;;;5051401;28;20221;-70
2022/11/29 15:16:39;;;;;;;1999.90;999.90;;;;;;;;;;5051521;28;20205;-70
2022/11/29 15:19:48;;;;;;;1999.90;999.90;;;;;;;;;;5051551;28;20202;-70
2022/11/29 15:22:40;;;;;;;1999.90;999.90;;;;;;;;;;5051503;28;20213;-70
2022/11/29 15:25:29;;;;;;;1999.90;999.90;;;;;;;;;;5050866;28;20237;-70
2022/11/29 15:28:19;;;;;;;1999.90;999.90;;;;;;;;;;5051214;28;20220;-71
2022/11/29 15:31:05;;;;;;;1999.90;999.90;;;;;;;;;;5051245;28;20213;-70
2022/11/29 15:33:50;;;;;;;1999.90;999.90;;;;;;;;;;5050629;28;20417;-71
2022/11/29 15:36:42;;;;;;;1999.90;999.90;;;;;;;;;;5051390;28;20217;-70
2022/11/29 15:39:29;;;;;;;1999.90;999.90;;;;;;;;;;5051397;28;20784;-70
2022/11/29 15:42:15;;;;;;;1999.90;999.90;;;;;;;;;;5051300;28;20208;-70
2022/11/29 15:45:00;;;;;;;1999.90;999.90;;;;;;;;;;5051577;28;20299;-71
2022/11/29 15:47:45;;;;;;;1999.90;999.90;;;;;;;;;;5054845;28;20743;-71
2022/11/29 15:50:32;;;;;;;1999.90;999.90;;;;;;;;;;5055133;28;20204;-70
2022/11/29 15:53:20;;;;;;;1999.90;999.90;;;;;;;;;;5054903;28;20205;-70
2022/11/29 15:56:09;;;;;;;1999.90;999.90;;;;;;;;;;5053048;28;20450;-70
2022/11/29 15:58:58;;;;;;;1999.90;999.90;;;;;;;;;;5054554;28;20284;-70
2022/11/29 16:01:44;;;;;;;1999.90;999.90;;;;;;;;;;5054655;28;20205;-69
2022/11/29 16:04:30;;;;;;;1999.90;999.90;;;;;;;;;;5054293;28;20311;-69
2022/11/29 16:07:15;;;;;;;1999.90;999.90;;;;;;;;;;5054480;28;20225;-69
2022/11/29 16:10:03;;;;;;;1999.90;999.90;;;;;;;;;;5054347;28;20209;-69
2022/11/29 16:12:53;;;;;;;1999.90;999.90;;;;;;;;;;5054509;28;20578;-69
2022/11/29 16:15:40;;;;;;;1999.90;999.90;;;;;;;;;;5054108;28;20228;-69
2022/11/29 16:18:25;;;;;;;1999.90;999.90;;;;;;;;;;5054028;28;20205;-69
2022/11/29 16:21:24;;;;;;;1999.90;999.90;;;;;;;;;;5054529;28;20209;-69
2022/11/29 16:24:13;;;;;;;1999.90;999.90;;;;;;;;;;5054162;28;20674;-69
2022/11/29 16:27:00;;;;;;;1999.90;999.90;;;;;;;;;;5054103;28;20675;-70
2022/11/29 16:29:46;;;;;;;1999.90;999.90;;;;;;;;;;5054234;28;20703;-70
2022/11/29 16:32:34;;;;;;;1999.90;999.90;;;;;;;;;;5054734;28;20209;-69
2022/11/29 16:35:20;;;;;;;1999.90;999.90;;;;;;;;;;5053944;28;20248;-71
2022/11/29 16:38:05;;;;;;;1999.90;999.90;;;;;;;;;;5056118;28;20738;-71
2022/11/29 16:41:01;;;;;;;1999.90;999.90;;;;;;;;;;5056277;28;20337;-71
2022/11/29 16:43:47;;;;;;;1999.90;999.90;;;;;;;;;;5055506;28;20197;-70
2022/11/29 16:46:33;;;;;;;1999.90;999.90;;;;;;;;;;5053703;28;20328;-69
2022/11/29 16:49:33;;;;;;;1999.90;999.90;;;;;;;;;;5054270;28;20205;-69
2022/11/29 16:52:23;;;;;;;1999.90;999.90;;;;;;;;;;5053752;28;20201;-70
2022/11/29 16:55:08;;;;;;;1999.90;999.90;;;;;;;;;;5053156;28;20416;-69
2022/11/29 16:57:53;;;;;;;1999.90;999.90;;;;;;;;;;5052903;28;20204;-69
2022/11/29 17:00:38;;;;;;;1999.90;999.90;;;;;;;;;;5053535;28;20295;-69
2022/11/29 17:03:23;;;;;;;1999.90;999.90;;;;;;;;;;5053557;28;20292;-70
2022/11/29 17:06:11;;;;;;;1999.90;999.90;;;;;;;;;;5053160;28;20221;-69
2022/11/29 17:08:57;;;;;;;1999.90;999.90;;;;;;;;;;5053152;28;20267;-69
2022/11/29 17:11:42;;;;;;;1999.90;999.90;;;;;;;;;;5053402;28;20699;-70
2022/11/29 17:14:27;;;;;;;1999.90;999.90;;;;;;;;;;5052990;28;20272;-69
2022/11/29 17:17:13;;;;;;;1999.90;999.90;;;;;;;;;;5052452;28;20384;-69
2022/11/29 17:19:58;;;;;;;1999.90;999.90;;;;;;;;;;5053160;28;20283;-69
2022/11/29 17:22:44;;;;;;;1999.90;999.90;;;;;;;;;;5053182;28;20691;-70
2022/11/29 17:25:29;;;;;;;1999.90;999.90;;;;;;;;;;5052764;28;20232;-69
2022/11/29 17:28:14;;;;;;;1999.90;999.90;;;;;;;;;;5052969;28;20574;-70
2022/11/29 17:30:58;;;;;;;1999.90;999.90;;;;;;;;;;5053007;28;20205;-70
2022/11/29 17:33:43;;;;;;;1999.90;999.90;;;;;;;;;;5052907;28;20259;-70
2022/11/29 17:36:29;;;;;;;1999.90;999.90;;;;;;;;;;5052656;28;20255;-70
2022/11/29 17:39:18;;;;;;;1999.90;999.90;;;;;;;;;;5052894;28;20205;-72
2022/11/29 17:42:04;;;;;;;1999.90;999.90;;;;;;;;;;5052878;28;20202;-70
2022/11/29 17:44:49;;;;;;;1999.90;999.90;;;;;;;;;;5052393;28;20785;-70
2022/11/29 17:47:34;;;;;;;1999.90;999.90;;;;;;;;;;5052573;28;20214;-69
2022/11/29 17:50:18;;;;;;;1999.90;999.90;;;;;;;;;;5052650;28;20208;-70
2022/11/29 17:53:03;;;;;;;1999.90;999.90;;;;;;;;;;5052642;28;20699;-69
2022/11/29 17:55:49;;;;;;;1999.90;999.90;;;;;;;;;;5052158;28;20568;-69
2022/11/29 17:58:34;;;;;;;1999.90;999.90;;;;;;;;;;5052502;28;20260;-70
2022/11/29 18:01:22;;;;;;;1999.90;999.90;;;;;;;;;;5052192;28;20617;-70
2022/11/29 18:04:07;;;;;;;1999.90;999.90;;;;;;;;;;5052256;28;20208;-70
2022/11/29 18:06:52;;;;;;;1999.90;999.90;;;;;;;;;;5052337;28;20205;-70
2022/11/29 18:09:37;;;;;;;1999.90;999.90;;;;;;;;;;5051368;28;20256;-69
2022/11/29 18:12:23;;;;;;;1999.90;999.90;;;;;;;;;;5052048;28;20197;-69
2022/11/29 18:15:08;;;;;;;1999.90;999.90;;;;;;;;;;5051848;28;20292;-69
2022/11/29 18:17:53;;;;;;;1999.90;999.90;;;;;;;;;;5048042;28;20572;-70
2022/11/29 18:20:37;;;;;;;1999.90;999.90;;;;;;;;;;5044331;28;20292;-69
2022/11/29 18:23:22;;;;;;;1999.90;999.90;;;;;;;;;;5050703;28;20336;-70
2022/11/29 18:26:08;;;;;;;1999.90;999.90;;;;;;;;;;5040318;28;20599;-69
2022/11/29 18:28:55;;;;;;;1999.90;999.90;;;;;;;;;;5045836;28;20225;-69
2022/11/29 18:31:40;;;;;;;1999.90;999.90;;;;;;;;;;5049726;28;20209;-70
2022/11/29 18:34:25;;;;;;;1999.90;999.90;;;;;;;;;;5051222;28;20224;-69
2022/11/29 18:37:10;;;;;;;1999.90;999.90;;;;;;;;;;5031390;28;20210;-69
2022/11/29 18:39:55;;;;;;;1999.90;999.90;;;;;;;;;;5030245;28;20383;-70